EJU48PU LFSB-LEPA
Flight info
| Callsign | EJU48PU |
|---|---|
| Flight time | N/A |
| Altitude | 37000 |
| Route | OLBEN Z50 ROTOS Z669 VADAR DCT GEVEA DCT INCUS DCT BALSI DCT RETNO DCT TUPOX DCT MTG DCT DIVKO DCT VATIR N852 VERSO L129 LUNIK |
| Aircraft | A320/M-SDE3FGHIRWY/LB1 |
Departure
| Time | 2026-04-29 15:43 |
|---|---|
| Airport | EuroAirport Basel–Mulhouse–Freiburg (LFSB) |
Arrival
| Time | N/A |
|---|---|
| Airport | Palma de Mallorca Airport (LEPA) |
| Time | Latitude | Longitude | Altitude | Speed | Heading |
|---|---|---|---|---|---|
| 2026-04-29 15:16 | 47.59722 | 7.53223 | 890 ft | 0 kts | 64° |
| 2026-04-29 15:32 | 47.59720 | 7.53215 | 890 ft | 4 kts | 64° |
| 2026-04-29 15:33 | 47.59708 | 7.53182 | 890 ft | 4 kts | 74° |
| 2026-04-29 15:33 | 47.59714 | 7.53177 | 890 ft | 4 kts | 34° |
| 2026-04-29 15:33 | 47.59716 | 7.53177 | 890 ft | 4 kts | 47° |
| 2026-04-29 15:33 | 47.59708 | 7.53152 | 890 ft | 3 kts | 99° |
| 2026-04-29 15:34 | 47.59717 | 7.53120 | 890 ft | 4 kts | 150° |
| 2026-04-29 15:34 | 47.59740 | 7.53106 | 890 ft | 2 kts | 154° |
| 2026-04-29 15:34 | 47.59741 | 7.53105 | 890 ft | 0 kts | 154° |
| 2026-04-29 15:37 | 47.59735 | 7.53110 | 890 ft | 1 kts | 154° |
| 2026-04-29 15:37 | 47.59727 | 7.53116 | 890 ft | 4 kts | 154° |
| 2026-04-29 15:37 | 47.59677 | 7.53101 | 890 ft | 10 kts | 236° |
| 2026-04-29 15:37 | 47.59649 | 7.53014 | 890 ft | 9 kts | 245° |
| 2026-04-29 15:38 | 47.59623 | 7.52930 | 890 ft | 11 kts | 245° |
| 2026-04-29 15:38 | 47.59591 | 7.52825 | 890 ft | 11 kts | 253° |
| 2026-04-29 15:38 | 47.59647 | 7.52758 | 890 ft | 14 kts | 335° |
| 2026-04-29 15:38 | 47.59764 | 7.52678 | 890 ft | 23 kts | 335° |
| 2026-04-29 15:39 | 47.59924 | 7.52568 | 890 ft | 26 kts | 335° |
| 2026-04-29 15:39 | 47.60091 | 7.52451 | 890 ft | 27 kts | 334° |
| 2026-04-29 15:39 | 47.60266 | 7.52330 | 888 ft | 29 kts | 335° |
| 2026-04-29 15:39 | 47.60451 | 7.52201 | 883 ft | 28 kts | 335° |
| 2026-04-29 15:40 | 47.60632 | 7.52075 | 882 ft | 27 kts | 335° |
| 2026-04-29 15:40 | 47.60794 | 7.51961 | 881 ft | 26 kts | 334° |
| 2026-04-29 15:40 | 47.60963 | 7.51844 | 877 ft | 28 kts | 335° |
| 2026-04-29 15:40 | 47.61147 | 7.51717 | 872 ft | 31 kts | 334° |
| 2026-04-29 15:41 | 47.61339 | 7.51583 | 868 ft | 27 kts | 334° |
| 2026-04-29 15:41 | 47.61520 | 7.51458 | 856 ft | 29 kts | 335° |
| 2026-04-29 15:41 | 47.61703 | 7.51329 | 871 ft | 28 kts | 335° |
| 2026-04-29 15:41 | 47.61808 | 7.51173 | 873 ft | 18 kts | 269° |
| 2026-04-29 15:42 | 47.61768 | 7.51032 | 876 ft | 14 kts | 224° |
| 2026-04-29 15:42 | 47.61681 | 7.51046 | 876 ft | 14 kts | 155° |
| 2026-04-29 15:42 | 47.61506 | 7.51169 | 872 ft | 61 kts | 154° |
| 2026-04-29 15:42 | 47.60919 | 7.51578 | 880 ft | 122 kts | 155° |
| 2026-04-29 15:43 | 47.60004 | 7.52220 | 897 ft | 167 kts | 153° |
| 2026-04-29 15:43 | 47.58945 | 7.52946 | 1469 ft | 169 kts | 153° |
| 2026-04-29 15:43 | 47.57882 | 7.53697 | 2196 ft | 171 kts | 152° |
| 2026-04-29 15:43 | 47.56708 | 7.54150 | 2778 ft | 183 kts | 180° |
| 2026-04-29 15:44 | 47.55410 | 7.53636 | 3112 ft | 208 kts | 206° |
| 2026-04-29 15:44 | 47.54287 | 7.52126 | 3457 ft | 230 kts | 236° |
| 2026-04-29 15:44 | 47.53728 | 7.49816 | 3882 ft | 248 kts | 259° |
| 2026-04-29 15:44 | 47.53409 | 7.47323 | 4774 ft | 250 kts | 257° |
| 2026-04-29 15:45 | 47.52653 | 7.45019 | 5548 ft | 255 kts | 224° |
| 2026-04-29 15:45 | 47.51134 | 7.43757 | 6257 ft | 252 kts | 185° |
| 2026-04-29 15:45 | 47.49427 | 7.43818 | 7061 ft | 248 kts | 166° |
| 2026-04-29 15:45 | 47.47749 | 7.44406 | 7884 ft | 248 kts | 160° |
| 2026-04-29 15:46 | 47.46085 | 7.45133 | 8698 ft | 251 kts | 159° |
| 2026-04-29 15:46 | 47.44444 | 7.46026 | 9453 ft | 253 kts | 148° |
| 2026-04-29 15:46 | 47.42981 | 7.47525 | 9996 ft | 265 kts | 135° |
| 2026-04-29 15:46 | 47.41552 | 7.49422 | 10321 ft | 288 kts | 136° |
| 2026-04-29 15:47 | 47.39966 | 7.51422 | 10609 ft | 312 kts | 138° |
| 2026-04-29 15:47 | 47.38245 | 7.53532 | 11022 ft | 329 kts | 139° |
| 2026-04-29 15:47 | 47.36457 | 7.55695 | 11699 ft | 335 kts | 140° |
| 2026-04-29 15:47 | 47.34659 | 7.57860 | 12405 ft | 340 kts | 140° |
| 2026-04-29 15:48 | 47.32814 | 7.60081 | 13103 ft | 345 kts | 140° |
| 2026-04-29 15:48 | 47.30940 | 7.62333 | 13754 ft | 350 kts | 142° |
| 2026-04-29 15:48 | 47.28871 | 7.64277 | 14391 ft | 355 kts | 150° |
| 2026-04-29 15:48 | 47.26707 | 7.66087 | 15033 ft | 359 kts | 150° |
| 2026-04-29 15:49 | 47.24508 | 7.67874 | 15635 ft | 364 kts | 155° |
| 2026-04-29 15:49 | 47.22076 | 7.68928 | 16214 ft | 367 kts | 174° |
| 2026-04-29 15:49 | 47.19532 | 7.68822 | 16811 ft | 369 kts | 193° |
| 2026-04-29 15:49 | 47.17123 | 7.67552 | 17401 ft | 368 kts | 211° |
| 2026-04-29 15:50 | 47.15108 | 7.65258 | 17985 ft | 367 kts | 230° |
| 2026-04-29 15:50 | 47.13513 | 7.62390 | 18573 ft | 369 kts | 234° |
| 2026-04-29 15:50 | 47.11917 | 7.59424 | 19166 ft | 372 kts | 234° |
| 2026-04-29 15:50 | 47.10313 | 7.56440 | 19743 ft | 374 kts | 234° |
| 2026-04-29 15:51 | 47.08692 | 7.53437 | 20304 ft | 377 kts | 234° |
| 2026-04-29 15:51 | 47.07055 | 7.50415 | 20829 ft | 380 kts | 234° |
| 2026-04-29 15:51 | 47.05407 | 7.47379 | 21354 ft | 382 kts | 234° |
| 2026-04-29 15:51 | 47.03746 | 7.44320 | 21840 ft | 385 kts | 234° |
| 2026-04-29 15:52 | 47.02072 | 7.41243 | 22327 ft | 387 kts | 234° |
| 2026-04-29 15:52 | 47.00409 | 7.38195 | 22801 ft | 390 kts | 234° |
| 2026-04-29 15:52 | 46.98708 | 7.35087 | 23263 ft | 392 kts | 234° |
| 2026-04-29 15:52 | 46.96990 | 7.31963 | 23736 ft | 395 kts | 234° |
| 2026-04-29 15:53 | 46.95263 | 7.28826 | 24181 ft | 397 kts | 234° |
| 2026-04-29 15:53 | 46.93529 | 7.25669 | 24609 ft | 399 kts | 234° |
| 2026-04-29 15:53 | 46.91788 | 7.22491 | 25051 ft | 401 kts | 235° |
| 2026-04-29 15:53 | 46.90042 | 7.19303 | 25477 ft | 402 kts | 235° |
| 2026-04-29 15:54 | 46.88288 | 7.16108 | 25889 ft | 404 kts | 235° |
| 2026-04-29 15:54 | 46.86547 | 7.12938 | 26299 ft | 406 kts | 235° |
| 2026-04-29 15:54 | 46.84774 | 7.09719 | 26703 ft | 408 kts | 235° |